Nearby METAR Reports

 

KEWB - New Bedford, Massachusetts, USA
Distance from station: ESE 9mi, 15km
Updated: Wed, 30-Sep-2020 11:53am EDT
Partly cloudy
Partly cloudy
 Wind from SW
Wind: SW 14 mph , 22 km/h, Gust: 21 mph , 33 km/h
Temperature: 72°F , 22°C
Dew Point: 61°F , 16°C
Humidity: 69%
Barometer: 29.60 inHg , 1002.4 hPa
Clouds: Partly cloudy
Visibility: 10 miles , 16 km
Cloud details: Partly cloudy 3200 ft
2020/09/30 15:53 KEWB 301553Z 22012G18KT 10SM SCT032 22/16 A2960 RMK AO2 SLP023 T02220156
KTAN - Taunton, Massachusetts, USA
Distance from station: NNE 11mi, 18km
Updated: Wed, 30-Sep-2020 11:52am EDT
Partly cloudy
Partly cloudy
 Wind from WSW
Wind: WSW 10 mph , 17 km/h, Gust: 20 mph , 31 km/h
Temperature: 73°F , 23°C
Dew Point: 61°F , 16°C
Humidity: 65%
Barometer: 29.59 inHg , 1002 hPa
Clouds: Partly cloudy
Visibility: 10 miles , 16 km
Cloud details: Few Clouds 2900 ft
Partly cloudy 4100 ft
Partly cloudy 5000 ft
2020/09/30 15:52 KTAN 301552Z AUTO 24009G17KT 200V270 10SM FEW029 SCT041 SCT050 23/16 A2959 RMK AO2 RAB02E13 SLP019 P0000 T02280156
 
KPVD - Providence/Green, Rhode Island, USA
Distance from station: W 16mi, 26km
Updated: Wed, 30-Sep-2020 11:51am EDT
Mostly cloudy
Mostly cloudy
 Wind from WSW
Wind: WSW 15 mph , 24 km/h, Gust: 26 mph , 43 km/h
Temperature: 73°F , 23°C
Dew Point: 59°F , 15°C
Humidity: 61%
Barometer: 29.61 inHg , 1002.7 hPa
Clouds: Mostly cloudy
Visibility: 10 miles , 16 km
Cloud details: Few Clouds 3000 ft
Few Clouds 7000 ft
Partly cloudy 16000 ft
Mostly cloudy 30000 ft
2020/09/30 15:51 KPVD 301551Z 24013G23KT 10SM FEW030 FEW070 SCT160 BKN300 23/15 A2961 RMK AO2 PK WND 25028/1455 SLP024 T02330150
KUUU - Newport, Rhode Island, USA
Distance from station: SSW 16mi, 27km
Updated: Wed, 30-Sep-2020 11:53am EDT
Clear
Clear
 Wind from SSW
Wind: SSW 14 mph , 22 km/h, Gust: 23 mph , 37 km/h
Temperature: 70°F , 21°C
Dew Point: 61°F , 16°C
Humidity: 73%
Barometer: 29.62 inHg , 1003 hPa
Clouds: Clear
Visibility: 10 miles , 16 km
2020/09/30 15:53 KUUU 301553Z AUTO 20012G20KT 10SM CLR 21/16 A2962 RMK AO2 SLP029 T02110156
 
KOQU - N. Kingston/Quon, Rhode Island, USA
Distance from station: WSW 18mi, 29km
Updated: Wed, 30-Sep-2020 11:50am EDT
Mostly cloudy
Mostly cloudy
 Wind from WSW
Wind: WSW 23 mph , 37 km/h
Temperature: 70°F , 21°C
Barometer: 29.61 inHg , 1002.7 hPa
Clouds: Mostly cloudy
Visibility: 10 miles , 16 km
Cloud details: Partly cloudy 1500 ft
Mostly cloudy 4000 ft
Mostly cloudy 10000 ft
2020/09/30 15:50 KOQU 301550Z 24020KT 10SM SCT015 BKN040 BKN100 21/ A2961
KPYM - Plymouth, Massachusetts, USA
Distance from station: ENE 23mi, 37km
Updated: Wed, 30-Sep-2020 11:52am EDT
Mostly cloudy
Mostly cloudy
 Wind from SW
Wind: SW 17 mph , 28 km/h, Gust: 25 mph , 41 km/h
Temperature: 72°F , 22°C
Dew Point: 63°F , 17°C
Humidity: 73%
Barometer: 29.60 inHg , 1002.4 hPa
Clouds: Mostly cloudy
Visibility: 10 miles , 16 km
Cloud details: Few Clouds 1500 ft
Mostly cloudy 3400 ft
Mostly cloudy 5000 ft
2020/09/30 15:52 KPYM 301552Z AUTO 22015G22KT 10SM FEW015 BKN034 BKN050 22/17 A2960 RMK AO2 PK WND 21027/1512 RAB1457E21 SLP021 P0000 T02170172
 
KSFZ - Pawtucket, Rhode Island, USA
Distance from station: WNW 23mi, 38km
Updated: Wed, 30-Sep-2020 11:56am EDT
Clear
Clear
 Wind from W
Wind: W 12 mph , 19 km/h, Gust: 22 mph , 35 km/h
Temperature: 70°F , 21°C
Dew Point: 61°F , 16°C
Humidity: 73%
Barometer: 29.60 inHg , 1002.4 hPa
Clouds: Clear
Visibility: 10 miles , 16 km
2020/09/30 15:56 KSFZ 301556Z AUTO 26010G19KT 10SM CLR 21/16 A2960 RMK AO2 SLP968 T02060161
KOWD - Norwood, Massachusetts, USA
Distance from station: N 31mi, 50km
Updated: Wed, 30-Sep-2020 11:53am EDT
Few Clouds
Few Clouds
 Wind from WSW
Wind: WSW 8 mph , 13 km/h
Temperature: 70°F , 21°C
Dew Point: 61°F , 16°C
Humidity: 73%
Barometer: 29.57 inHg , 1001.4 hPa
Clouds: Few Clouds
Visibility: 10 miles , 16 km
Cloud details: Few Clouds 3800 ft
2020/09/30 15:53 KOWD 301553Z 24007KT 10SM FEW038 21/16 A2957 RMK AO2 WSHFT 1440 RAE15 SLP012 P0001 T02060161
 
KFMH - Falmouth/Otis Ab, Massachusetts, USA
Distance from station: ESE 32mi, 51km
Updated: Wed, 30-Sep-2020 11:45am EDT
Overcast
Overcast
 Wind from WSW
Wind: WSW 22 mph , 35 km/h, Gust: 36 mph , 57 km/h
Temperature: 66°F , 19°C
Dew Point: 66°F , 19°C
Humidity: 100%
Barometer: 29.63 inHg , 1003.4 hPa
Clouds: Overcast
Visibility: 10 miles , 16 km
Cloud details: Mostly cloudy 1400 ft
Overcast 8000 ft
2020/09/30 15:45 KFMH 301545Z 24019G31KT 10SM BKN014 OVC080 19/19 A2963
KMQE - East Milton, Massachusetts, USA
Distance from station: N 33mi, 53km
Updated: Wed, 30-Sep-2020 11:51am EDT

 Wind from SW
Wind: SW 14 mph , 22 km/h
Temperature: 64°F , 18°C
Dew Point: 61°F , 16°C
Humidity: 88%
Barometer: 29.56 inHg , 1001 hPa
2020/09/30 15:51 KMQE 301551Z AUTO 23012KT 18/16 A2956 RMK AO1 PK WND 27035/1456 WSHFT 1445 SLP018 P0010 T01780156
 
KGHG - Marshfield, Massachusetts, USA
Distance from station: NE 34mi, 55km
Updated: Wed, 30-Sep-2020 12:15pm EDT
Clear
Clear
 Wind from WSW
Wind: WSW 13 mph , 20 km/h, Gust: 22 mph , 35 km/h
Temperature: 75°F , 24°C
Dew Point: 64°F , 18°C
Humidity: 69%
Barometer: 29.57 inHg , 1001.4 hPa
Clouds: Clear
Visibility: 10 miles , 16 km
2020/09/30 16:15 KGHG 301615Z AUTO 24011G19KT 210V270 10SM CLR 24/18 A2957 RMK AO2
KMVY - Marthas Vineyard, Massachusetts, USA
Distance from station: SE 35mi, 56km
Updated: Wed, 30-Sep-2020 11:53am EDT
Light rain, Overcast
Light rain, Overcast
 Wind from SW
Wind: SW 14 mph , 22 km/h, Gust: 29 mph , 46 km/h
Temperature: 66°F , 19°C
Dew Point: 64°F , 18°C
Humidity: 94%
Barometer: 29.65 inHg , 1004.1 hPa
Summary: Light rain
Clouds: Overcast
Visibility: 8 miles , 13 km
Cloud details: Few Clouds 800 ft
Mostly cloudy 1200 ft
Overcast 4300 ft
2020/09/30 15:53 KMVY 301553Z 23012G25KT 8SM -RA FEW008 BKN012 OVC043 19/18 A2965 RMK AO2 PK WND 23034/1508 RAE01B51 SLP039 P0000 T01940183
 
KBOS - Boston, Massachusetts, USA
Distance from station: N 44mi, 71km
Updated: Wed, 30-Sep-2020 11:54am EDT
Mostly cloudy
Mostly cloudy
 Wind from SW
Wind: SW 12 mph , 19 km/h, Gust: 23 mph , 37 km/h
Temperature: 68°F , 20°C
Dew Point: 61°F , 16°C
Humidity: 78%
Barometer: 29.56 inHg , 1001 hPa
Clouds: Mostly cloudy
Visibility: 10 miles , 16 km
Cloud details: Few Clouds 3800 ft
Partly cloudy 5500 ft
Mostly cloudy 16000 ft
Mostly cloudy 25000 ft
2020/09/30 15:54 KBOS 301554Z 23010G20KT 10SM FEW038 SCT055 BKN160 BKN250 20/16 A2956 RMK AO2 PK WND 27033/1455 WSHFT 1447 RAE16 SLP008 P0004 T02000156
KHYA - Hyannis, Massachusetts, USA
Distance from station: E 44mi, 71km
Updated: Wed, 30-Sep-2020 11:56am EDT
Mist, Overcast
Mist, Overcast
 Wind from SW
Wind: SW 21 mph , 33 km/h, Gust: 35 mph , 56 km/h
Temperature: 68°F , 20°C
Dew Point: 66°F , 19°C
Humidity: 94%
Barometer: 29.61 inHg , 1002.7 hPa
Summary: Mist
Clouds: Overcast
Visibility: 5 miles , 8 km
Cloud details: Mostly cloudy 800 ft
Mostly cloudy 1700 ft
Overcast 2200 ft
2020/09/30 15:56 KHYA 301556Z 22018G30KT 5SM BR BKN008 BKN017 OVC022 20/19 A2961 RMK AO2 PK WND 21033/1527 RAE34 SLP027 P0001 T02000189
 
KWST - Westerly, Rhode Island, USA
Distance from station: SW 44mi, 71km
Updated: Wed, 30-Sep-2020 12:01pm EDT
Mostly cloudy
Mostly cloudy
 Wind from WSW
Wind: WSW 22 mph , 35 km/h, Gust: 30 mph , 48 km/h
Temperature: 66°F , 19°C
Dew Point: 55°F , 13°C
Humidity: 68%
Barometer: 29.66 inHg , 1004.4 hPa
Clouds: Mostly cloudy
Visibility: 10 miles , 16 km
Cloud details: Few Clouds 2200 ft
Partly cloudy 3000 ft
Mostly cloudy 4100 ft
2020/09/30 16:01 KWST 301601Z AUTO 25019G26KT 10SM FEW022 SCT030 BKN041 19/13 A2966 RMK AO2 PK WND 24026/1601 T01940133 $
KBID - Block Island, Rhode Island, USA
Distance from station: SSW 46mi, 74km
Updated: Wed, 30-Sep-2020 11:56am EDT
Mostly cloudy
Mostly cloudy
 Wind from SW
Wind: SW 26 mph , 43 km/h, Gust: 36 mph , 57 km/h
Temperature: 68°F , 20°C
Dew Point: 59°F , 15°C
Humidity: 73%
Barometer: 29.67 inHg , 1004.7 hPa
Clouds: Mostly cloudy
Visibility: 10 miles , 16 km
Cloud details: Partly cloudy 1700 ft
Mostly cloudy 6000 ft
2020/09/30 15:56 KBID 301556Z AUTO 23023G31KT 10SM SCT017 BKN060 20/15 A2967 RMK AO2 PK WND 24031/1554 SLP047 T02000150